sensor_id;sensor_type;location;lat;lon;timestamp;temperature;humidity
52859;DHT22;38721;53.098;6.596;2022-09-01T00:02:23;13.30;99.90
52859;DHT22;38721;53.098;6.596;2022-09-01T00:04:51;13.30;99.90
52859;DHT22;38721;53.098;6.596;2022-09-01T00:07:17;13.40;99.90
52859;DHT22;38721;53.098;6.596;2022-09-01T00:09:42;13.40;99.90
52859;DHT22;38721;53.098;6.596;2022-09-01T00:12:08;13.40;99.90
52859;DHT22;38721;53.098;6.596;2022-09-01T00:14:36;13.30;95.70
52859;DHT22;38721;53.098;6.596;2022-09-01T00:17:05;13.30;99.90
52859;DHT22;38721;53.098;6.596;2022-09-01T00:19:31;13.30;99.90
52859;DHT22;38721;53.098;6.596;2022-09-01T00:21:58;13.30;99.90
52859;DHT22;38721;53.098;6.596;2022-09-01T00:24:25;13.20;25.10
52859;DHT22;38721;53.098;6.596;2022-09-01T00:26:52;13.20;91.80
52859;DHT22;38721;53.098;6.596;2022-09-01T00:29:18;13.20;20.30
52859;DHT22;38721;53.098;6.596;2022-09-01T00:31:45;13.20;99.90
52859;DHT22;38721;53.098;6.596;2022-09-01T00:34:10;13.10;81.60
52859;DHT22;38721;53.098;6.596;2022-09-01T00:36:39;13.10;25.90
52859;DHT22;38721;53.098;6.596;2022-09-01T00:39:05;13.10;1.00
52859;DHT22;38721;53.098;6.596;2022-09-01T00:41:34;13.10;1.00
52859;DHT22;38721;53.098;6.596;2022-09-01T00:44:03;13.00;99.90
52859;DHT22;38721;53.098;6.596;2022-09-01T00:46:35;13.00;77.50
52859;DHT22;38721;53.098;6.596;2022-09-01T00:49:46;13.00;99.90
52859;DHT22;38721;53.098;6.596;2022-09-01T00:52:16;12.90;5.50
52859;DHT22;38721;53.098;6.596;2022-09-01T00:54:47;12.90;1.00
52859;DHT22;38721;53.098;6.596;2022-09-01T00:57:16;12.90;71.30
52859;DHT22;38721;53.098;6.596;2022-09-01T01:00:07;12.90;99.90
52859;DHT22;38721;53.098;6.596;2022-09-01T01:02:36;12.90;99.90
52859;DHT22;38721;53.098;6.596;2022-09-01T01:05:04;12.80;94.30
52859;DHT22;38721;53.098;6.596;2022-09-01T01:07:30;12.80;99.90
52859;DHT22;38721;53.098;6.596;2022-09-01T01:09:57;12.80;99.90
52859;DHT22;38721;53.098;6.596;2022-09-01T01:12:23;12.80;99.90
52859;DHT22;38721;53.098;6.596;2022-09-01T01:14:52;12.70;1.00
52859;DHT22;38721;53.098;6.596;2022-09-01T01:17:19;12.70;99.90
52859;DHT22;38721;53.098;6.596;2022-09-01T01:19:53;12.80;69.60
52859;DHT22;38721;53.098;6.596;2022-09-01T01:22:40;12.70;99.90
52859;DHT22;38721;53.098;6.596;2022-09-01T01:25:48;12.60;57.00
52859;DHT22;38721;53.098;6.596;2022-09-01T01:28:27;12.60;13.20
52859;DHT22;38721;53.098;6.596;2022-09-01T01:31:06;12.60;37.10
52859;DHT22;38721;53.098;6.596;2022-09-01T01:33:46;12.50;99.90
52859;DHT22;38721;53.098;6.596;2022-09-01T01:36:19;12.50;99.90
52859;DHT22;38721;53.098;6.596;2022-09-01T01:38:48;12.50;99.90
52859;DHT22;38721;53.098;6.596;2022-09-01T01:41:15;12.40;99.90
52859;DHT22;38721;53.098;6.596;2022-09-01T01:43:42;12.50;99.90
52859;DHT22;38721;53.098;6.596;2022-09-01T01:46:10;12.50;99.90
52859;DHT22;38721;53.098;6.596;2022-09-01T01:48:38;12.40;99.90
52859;DHT22;38721;53.098;6.596;2022-09-01T01:51:05;12.50;99.90
52859;DHT22;38721;53.098;6.596;2022-09-01T01:53:31;12.40;99.90
52859;DHT22;38721;53.098;6.596;2022-09-01T01:55:57;12.40;99.90
52859;DHT22;38721;53.098;6.596;2022-09-01T01:58:24;12.30;99.90
52859;DHT22;38721;53.098;6.596;2022-09-01T02:00:54;12.30;99.90
52859;DHT22;38721;53.098;6.596;2022-09-01T02:03:23;12.30;99.90
52859;DHT22;38721;53.098;6.596;2022-09-01T02:05:51;12.30;99.90
52859;DHT22;38721;53.098;6.596;2022-09-01T02:08:18;12.30;99.90
52859;DHT22;38721;53.098;6.596;2022-09-01T02:10:50;12.30;99.90
52859;DHT22;38721;53.098;6.596;2022-09-01T02:13:18;12.20;99.90
52859;DHT22;38721;53.098;6.596;2022-09-01T02:15:53;12.20;99.90
52859;DHT22;38721;53.098;6.596;2022-09-01T02:18:30;12.20;99.90
52859;DHT22;38721;53.098;6.596;2022-09-01T02:20:59;12.30;99.90
52859;DHT22;38721;53.098;6.596;2022-09-01T02:23:25;12.30;99.90
52859;DHT22;38721;53.098;6.596;2022-09-01T02:25:57;12.30;99.90
52859;DHT22;38721;53.098;6.596;2022-09-01T02:28:28;12.30;99.90
52859;DHT22;38721;53.098;6.596;2022-09-01T02:30:57;12.30;99.90
52859;DHT22;38721;53.098;6.596;2022-09-01T02:33:25;12.20;99.90
52859;DHT22;38721;53.098;6.596;2022-09-01T02:36:02;12.20;99.90
52859;DHT22;38721;53.098;6.596;2022-09-01T02:38:31;12.20;99.90
52859;DHT22;38721;53.098;6.596;2022-09-01T02:41:00;12.20;99.90
52859;DHT22;38721;53.098;6.596;2022-09-01T02:43:28;12.20;99.90
52859;DHT22;38721;53.098;6.596;2022-09-01T02:45:59;12.10;99.90
52859;DHT22;38721;53.098;6.596;2022-09-01T02:50:58;12.20;99.90
52859;DHT22;38721;53.098;6.596;2022-09-01T02:53:28;12.10;99.90
52859;DHT22;38721;53.098;6.596;2022-09-01T02:55:54;12.20;99.90
52859;DHT22;38721;53.098;6.596;2022-09-01T02:58:24;12.20;99.90
52859;DHT22;38721;53.098;6.596;2022-09-01T03:00:57;12.20;99.90
52859;DHT22;38721;53.098;6.596;2022-09-01T03:03:23;12.30;99.90
52859;DHT22;38721;53.098;6.596;2022-09-01T03:05:52;12.30;99.90
52859;DHT22;38721;53.098;6.596;2022-09-01T03:08:23;12.30;99.90
52859;DHT22;38721;53.098;6.596;2022-09-01T03:10:49;12.40;99.90
52859;DHT22;38721;53.098;6.596;2022-09-01T03:13:20;12.30;99.90
52859;DHT22;38721;53.098;6.596;2022-09-01T03:15:46;12.40;99.90
52859;DHT22;38721;53.098;6.596;2022-09-01T03:18:13;12.40;99.90
52859;DHT22;38721;53.098;6.596;2022-09-01T03:20:41;12.30;99.90
52859;DHT22;38721;53.098;6.596;2022-09-01T03:23:10;12.40;99.90
52859;DHT22;38721;53.098;6.596;2022-09-01T03:25:40;12.40;99.90
52859;DHT22;38721;53.098;6.596;2022-09-01T03:28:06;12.40;99.90
52859;DHT22;38721;53.098;6.596;2022-09-01T03:30:35;12.40;99.90
52859;DHT22;38721;53.098;6.596;2022-09-01T03:33:01;12.40;99.90
52859;DHT22;38721;53.098;6.596;2022-09-01T03:35:28;12.40;99.90
52859;DHT22;38721;53.098;6.596;2022-09-01T03:37:57;12.40;99.90
52859;DHT22;38721;53.098;6.596;2022-09-01T03:40:25;12.40;99.90
52859;DHT22;38721;53.098;6.596;2022-09-01T03:42:53;12.40;99.90
52859;DHT22;38721;53.098;6.596;2022-09-01T03:45:20;12.40;99.90
52859;DHT22;38721;53.098;6.596;2022-09-01T03:47:46;12.30;99.90
52859;DHT22;38721;53.098;6.596;2022-09-01T03:50:18;12.20;99.90
52859;DHT22;38721;53.098;6.596;2022-09-01T03:52:50;12.20;17.70
52859;DHT22;38721;53.098;6.596;2022-09-01T03:55:21;12.20;1.00
52859;DHT22;38721;53.098;6.596;2022-09-01T03:57:53;12.20;1.00
52859;DHT22;38721;53.098;6.596;2022-09-01T04:00:22;12.20;1.00
52859;DHT22;38721;53.098;6.596;2022-09-01T04:02:56;12.10;50.40
52859;DHT22;38721;53.098;6.596;2022-09-01T04:05:24;12.10;70.30
52859;DHT22;38721;53.098;6.596;2022-09-01T04:07:55;12.00;65.30
52859;DHT22;38721;53.098;6.596;2022-09-01T04:10:21;11.90;29.30
52859;DHT22;38721;53.098;6.596;2022-09-01T04:12:47;11.90;99.90
52859;DHT22;38721;53.098;6.596;2022-09-01T04:15:15;11.90;99.90
52859;DHT22;38721;53.098;6.596;2022-09-01T04:17:45;11.90;99.90
52859;DHT22;38721;53.098;6.596;2022-09-01T04:20:33;11.80;99.90
52859;DHT22;38721;53.098;6.596;2022-09-01T04:23:05;11.90;99.90
52859;DHT22;38721;53.098;6.596;2022-09-01T04:25:36;11.90;99.90
52859;DHT22;38721;53.098;6.596;2022-09-01T04:28:04;11.80;99.90
52859;DHT22;38721;53.098;6.596;2022-09-01T04:30:39;11.80;99.90
52859;DHT22;38721;53.098;6.596;2022-09-01T04:33:07;11.80;99.90
52859;DHT22;38721;53.098;6.596;2022-09-01T04:35:40;11.70;99.90
52859;DHT22;38721;53.098;6.596;2022-09-01T04:38:06;11.70;99.90
52859;DHT22;38721;53.098;6.596;2022-09-01T04:40:37;11.70;99.90
52859;DHT22;38721;53.098;6.596;2022-09-01T04:43:04;11.70;92.70
52859;DHT22;38721;53.098;6.596;2022-09-01T04:45:30;11.70;99.90
52859;DHT22;38721;53.098;6.596;2022-09-01T04:47:56;11.60;14.20
52859;DHT22;38721;53.098;6.596;2022-09-01T04:50:25;11.60;49.30
52859;DHT22;38721;53.098;6.596;2022-09-01T04:52:54;11.60;40.70
52859;DHT22;38721;53.098;6.596;2022-09-01T04:55:20;11.60;99.90
52859;DHT22;38721;53.098;6.596;2022-09-01T04:57:47;11.60;32.20
52859;DHT22;38721;53.098;6.596;2022-09-01T05:00:19;11.60;99.90
52859;DHT22;38721;53.098;6.596;2022-09-01T05:02:54;11.60;65.00
52859;DHT22;38721;53.098;6.596;2022-09-01T05:05:20;11.60;45.30
52859;DHT22;38721;53.098;6.596;2022-09-01T05:07:48;11.60;18.10
52859;DHT22;38721;53.098;6.596;2022-09-01T05:10:21;11.70;90.70
52859;DHT22;38721;53.098;6.596;2022-09-01T05:12:48;11.70;42.00
52859;DHT22;38721;53.098;6.596;2022-09-01T05:15:14;11.70;99.90
52859;DHT22;38721;53.098;6.596;2022-09-01T05:17:41;11.80;99.90
52859;DHT22;38721;53.098;6.596;2022-09-01T05:20:09;11.80;99.90
52859;DHT22;38721;53.098;6.596;2022-09-01T05:22:36;11.80;99.90
52859;DHT22;38721;53.098;6.596;2022-09-01T05:25:06;11.90;99.90
52859;DHT22;38721;53.098;6.596;2022-09-01T05:27:43;11.90;92.80
52859;DHT22;38721;53.098;6.596;2022-09-01T05:30:17;12.00;75.60
52859;DHT22;38721;53.098;6.596;2022-09-01T05:32:43;12.00;99.90
52859;DHT22;38721;53.098;6.596;2022-09-01T05:35:13;12.10;99.90
52859;DHT22;38721;53.098;6.596;2022-09-01T05:37:39;12.10;94.20
52859;DHT22;38721;53.098;6.596;2022-09-01T05:40:08;12.20;99.90
52859;DHT22;38721;53.098;6.596;2022-09-01T05:42:43;12.30;99.90
52859;DHT22;38721;53.098;6.596;2022-09-01T05:45:10;12.30;99.90
52859;DHT22;38721;53.098;6.596;2022-09-01T05:47:42;12.40;36.80
52859;DHT22;38721;53.098;6.596;2022-09-01T05:50:08;12.50;4.40
52859;DHT22;38721;53.098;6.596;2022-09-01T05:52:37;12.50;1.00
52859;DHT22;38721;53.098;6.596;2022-09-01T05:55:03;12.70;1.00
52859;DHT22;38721;53.098;6.596;2022-09-01T05:57:32;12.80;1.00
52859;DHT22;38721;53.098;6.596;2022-09-01T06:00:00;12.90;1.00
52859;DHT22;38721;53.098;6.596;2022-09-01T06:02:26;13.00;1.00
52859;DHT22;38721;53.098;6.596;2022-09-01T06:04:53;13.20;1.00
52859;DHT22;38721;53.098;6.596;2022-09-01T06:07:21;13.30;1.00
52859;DHT22;38721;53.098;6.596;2022-09-01T06:09:48;13.50;99.90
52859;DHT22;38721;53.098;6.596;2022-09-01T06:12:15;13.60;99.90
52859;DHT22;38721;53.098;6.596;2022-09-01T06:14:50;13.70;99.90
52859;DHT22;38721;53.098;6.596;2022-09-01T06:17:21;13.70;99.90
52859;DHT22;38721;53.098;6.596;2022-09-01T06:19:50;13.70;99.90
52859;DHT22;38721;53.098;6.596;2022-09-01T06:22:18;13.70;99.90
52859;DHT22;38721;53.098;6.596;2022-09-01T06:24:45;13.70;99.90
52859;DHT22;38721;53.098;6.596;2022-09-01T06:27:12;13.70;99.90
52859;DHT22;38721;53.098;6.596;2022-09-01T06:29:46;13.70;40.80
52859;DHT22;38721;53.098;6.596;2022-09-01T06:32:22;13.70;91.60
52859;DHT22;38721;53.098;6.596;2022-09-01T06:34:50;13.80;82.70
52859;DHT22;38721;53.098;6.596;2022-09-01T06:37:17;13.90;99.90
52859;DHT22;38721;53.098;6.596;2022-09-01T06:39:47;14.10;99.90
52859;DHT22;38721;53.098;6.596;2022-09-01T06:42:13;14.20;74.70
52859;DHT22;38721;53.098;6.596;2022-09-01T06:44:40;14.40;4.70
52859;DHT22;38721;53.098;6.596;2022-09-01T06:47:05;14.70;1.00
52859;DHT22;38721;53.098;6.596;2022-09-01T06:49:33;15.00;99.90
52859;DHT22;38721;53.098;6.596;2022-09-01T06:52:00;15.30;99.90
52859;DHT22;38721;53.098;6.596;2022-09-01T06:54:27;15.40;99.90
52859;DHT22;38721;53.098;6.596;2022-09-01T06:57:02;15.60;6.60
52859;DHT22;38721;53.098;6.596;2022-09-01T06:59:29;15.70;99.90
52859;DHT22;38721;53.098;6.596;2022-09-01T07:01:59;15.90;99.90
52859;DHT22;38721;53.098;6.596;2022-09-01T07:04:29;15.90;99.90
52859;DHT22;38721;53.098;6.596;2022-09-01T07:06:56;16.00;99.90
52859;DHT22;38721;53.098;6.596;2022-09-01T07:09:22;16.00;99.90
52859;DHT22;38721;53.098;6.596;2022-09-01T07:11:48;16.00;99.90
52859;DHT22;38721;53.098;6.596;2022-09-01T07:14:15;16.10;99.90
52859;DHT22;38721;53.098;6.596;2022-09-01T07:16:42;16.20;93.30
52859;DHT22;38721;53.098;6.596;2022-09-01T07:19:09;16.10;12.00
52859;DHT22;38721;53.098;6.596;2022-09-01T07:21:40;16.30;91.10
52859;DHT22;38721;53.098;6.596;2022-09-01T07:24:07;16.40;90.90
52859;DHT22;38721;53.098;6.596;2022-09-01T07:26:34;16.40;1.00
52859;DHT22;38721;53.098;6.596;2022-09-01T07:29:00;16.40;99.90
52859;DHT22;38721;53.098;6.596;2022-09-01T07:31:33;16.50;99.90
52859;DHT22;38721;53.098;6.596;2022-09-01T07:34:02;16.70;1.00
52859;DHT22;38721;53.098;6.596;2022-09-01T07:36:30;16.80;99.90
52859;DHT22;38721;53.098;6.596;2022-09-01T07:38:58;16.80;99.90
52859;DHT22;38721;53.098;6.596;2022-09-01T07:41:25;16.80;99.90
52859;DHT22;38721;53.098;6.596;2022-09-01T07:43:52;17.00;99.90
52859;DHT22;38721;53.098;6.596;2022-09-01T07:46:20;17.00;99.90
52859;DHT22;38721;53.098;6.596;2022-09-01T07:48:48;17.20;99.90
52859;DHT22;38721;53.098;6.596;2022-09-01T07:51:16;17.20;99.90
52859;DHT22;38721;53.098;6.596;2022-09-01T07:53:46;17.30;1.00
52859;DHT22;38721;53.098;6.596;2022-09-01T07:56:16;17.40;99.90
52859;DHT22;38721;53.098;6.596;2022-09-01T07:58:43;17.30;17.30
52859;DHT22;38721;53.098;6.596;2022-09-01T08:01:12;17.40;93.00
52859;DHT22;38721;53.098;6.596;2022-09-01T08:03:39;17.60;99.90
52859;DHT22;38721;53.098;6.596;2022-09-01T08:06:09;17.60;99.90
52859;DHT22;38721;53.098;6.596;2022-09-01T08:08:37;17.70;99.90
52859;DHT22;38721;53.098;6.596;2022-09-01T08:11:04;17.70;83.00
52859;DHT22;38721;53.098;6.596;2022-09-01T08:13:31;17.80;1.00
52859;DHT22;38721;53.098;6.596;2022-09-01T08:15:57;17.80;99.90
52859;DHT22;38721;53.098;6.596;2022-09-01T08:18:22;18.00;99.90
52859;DHT22;38721;53.098;6.596;2022-09-01T08:20:51;18.00;99.90
52859;DHT22;38721;53.098;6.596;2022-09-01T08:23:20;18.10;99.90
52859;DHT22;38721;53.098;6.596;2022-09-01T08:26:03;18.20;99.90
52859;DHT22;38721;53.098;6.596;2022-09-01T08:28:29;18.30;6.80
52859;DHT22;38721;53.098;6.596;2022-09-01T08:30:55;18.40;99.90
52859;DHT22;38721;53.098;6.596;2022-09-01T08:33:20;18.50;1.00
52859;DHT22;38721;53.098;6.596;2022-09-01T08:35:48;18.60;1.00
52859;DHT22;38721;53.098;6.596;2022-09-01T08:38:14;18.70;12.10
52859;DHT22;38721;53.098;6.596;2022-09-01T08:40:40;18.80;57.60
52859;DHT22;38721;53.098;6.596;2022-09-01T08:43:18;18.90;99.90
52859;DHT22;38721;53.098;6.596;2022-09-01T08:45:53;19.00;99.90
52859;DHT22;38721;53.098;6.596;2022-09-01T08:48:40;19.10;99.90
52859;DHT22;38721;53.098;6.596;2022-09-01T08:56:47;19.50;99.90
52859;DHT22;38721;53.098;6.596;2022-09-01T08:59:20;19.50;99.90
52859;DHT22;38721;53.098;6.596;2022-09-01T09:09:34;20.10;13.60
52859;DHT22;38721;53.098;6.596;2022-09-01T09:15:56;20.30;1.00
52859;DHT22;38721;53.098;6.596;2022-09-01T09:18:43;20.40;1.00
52859;DHT22;38721;53.098;6.596;2022-09-01T09:21:17;20.50;99.90
52859;DHT22;38721;53.098;6.596;2022-09-01T09:23:50;20.50;99.90
52859;DHT22;38721;53.098;6.596;2022-09-01T09:26:19;20.70;99.90
52859;DHT22;38721;53.098;6.596;2022-09-01T09:28:46;20.90;99.90
52859;DHT22;38721;53.098;6.596;2022-09-01T09:31:28;21.00;99.90
52859;DHT22;38721;53.098;6.596;2022-09-01T09:33:54;21.00;99.90
52859;DHT22;38721;53.098;6.596;2022-09-01T09:36:28;21.10;99.90
52859;DHT22;38721;53.098;6.596;2022-09-01T09:39:10;21.40;99.90
52859;DHT22;38721;53.098;6.596;2022-09-01T09:41:37;21.20;99.90
52859;DHT22;38721;53.098;6.596;2022-09-01T09:46:40;21.50;99.90
52859;DHT22;38721;53.098;6.596;2022-09-01T09:49:30;21.70;99.90
52859;DHT22;38721;53.098;6.596;2022-09-01T09:52:17;21.90;99.90
52859;DHT22;38721;53.098;6.596;2022-09-01T09:55:05;21.90;73.30
52859;DHT22;38721;53.098;6.596;2022-09-01T09:57:31;22.00;1.00
52859;DHT22;38721;53.098;6.596;2022-09-01T10:00:38;22.00;1.00
52859;DHT22;38721;53.098;6.596;2022-09-01T10:03:09;22.00;99.90
52859;DHT22;38721;53.098;6.596;2022-09-01T10:05:48;22.30;99.90
52859;DHT22;38721;53.098;6.596;2022-09-01T10:10:59;22.50;99.90
52859;DHT22;38721;53.098;6.596;2022-09-01T10:13:26;22.50;99.90
52859;DHT22;38721;53.098;6.596;2022-09-01T10:16:00;22.30;99.90
52859;DHT22;38721;53.098;6.596;2022-09-01T10:18:31;21.60;99.90
52859;DHT22;38721;53.098;6.596;2022-09-01T10:23:34;22.40;99.90
52859;DHT22;38721;53.098;6.596;2022-09-01T10:26:08;22.40;99.90
52859;DHT22;38721;53.098;6.596;2022-09-01T10:28:46;23.00;99.90
52859;DHT22;38721;53.098;6.596;2022-09-01T10:31:13;23.10;99.90
52859;DHT22;38721;53.098;6.596;2022-09-01T10:33:39;22.90;99.90
52859;DHT22;38721;53.098;6.596;2022-09-01T10:36:08;23.20;99.90
52859;DHT22;38721;53.098;6.596;2022-09-01T10:38:34;23.40;99.90
52859;DHT22;38721;53.098;6.596;2022-09-01T10:40:59;23.80;99.90
52859;DHT22;38721;53.098;6.596;2022-09-01T10:43:47;24.20;99.90
52859;DHT22;38721;53.098;6.596;2022-09-01T10:52:07;23.20;99.90
52859;DHT22;38721;53.098;6.596;2022-09-01T10:57:43;23.90;99.90
52859;DHT22;38721;53.098;6.596;2022-09-01T11:03:32;23.40;99.90
52859;DHT22;38721;53.098;6.596;2022-09-01T11:06:07;23.30;99.90
52859;DHT22;38721;53.098;6.596;2022-09-01T11:08:46;23.70;99.90
52859;DHT22;38721;53.098;6.596;2022-09-01T11:11:21;23.90;99.90
52859;DHT22;38721;53.098;6.596;2022-09-01T11:13:51;24.00;99.90
52859;DHT22;38721;53.098;6.596;2022-09-01T11:16:40;24.20;99.90
52859;DHT22;38721;53.098;6.596;2022-09-01T11:27:54;23.50;99.90
52859;DHT22;38721;53.098;6.596;2022-09-01T11:30:01;23.50;99.90
52859;DHT22;38721;53.098;6.596;2022-09-01T11:32:34;23.50;99.90
52859;DHT22;38721;53.098;6.596;2022-09-01T11:35:03;23.80;99.90
52859;DHT22;38721;53.098;6.596;2022-09-01T11:37:31;24.30;99.90
52859;DHT22;38721;53.098;6.596;2022-09-01T11:40:00;25.00;99.90
52859;DHT22;38721;53.098;6.596;2022-09-01T11:42:41;25.60;99.90
52859;DHT22;38721;53.098;6.596;2022-09-01T11:45:22;25.80;97.20
52859;DHT22;38721;53.098;6.596;2022-09-01T11:47:51;24.70;86.90
52859;DHT22;38721;53.098;6.596;2022-09-01T11:55:35;26.30;91.00
52859;DHT22;38721;53.098;6.596;2022-09-01T11:58:05;26.40;86.60
52859;DHT22;38721;53.098;6.596;2022-09-01T12:00:34;25.80;62.50
52859;DHT22;38721;53.098;6.596;2022-09-01T12:03:19;26.30;64.90
52859;DHT22;38721;53.098;6.596;2022-09-01T12:05:51;26.60;55.70
52859;DHT22;38721;53.098;6.596;2022-09-01T12:08:25;26.00;29.30
52859;DHT22;38721;53.098;6.596;2022-09-01T12:11:04;25.70;26.70
52859;DHT22;38721;53.098;6.596;2022-09-01T12:13:30;26.00;32.60
52859;DHT22;38721;53.098;6.596;2022-09-01T12:15:59;26.20;27.00
52859;DHT22;38721;53.098;6.596;2022-09-01T12:18:45;26.50;26.50
52859;DHT22;38721;53.098;6.596;2022-09-01T12:21:31;25.80;17.10
52859;DHT22;38721;53.098;6.596;2022-09-01T12:24:34;26.70;19.20
52859;DHT22;38721;53.098;6.596;2022-09-01T12:27:00;26.70;18.50
52859;DHT22;38721;53.098;6.596;2022-09-01T12:29:29;26.90;16.90
52859;DHT22;38721;53.098;6.596;2022-09-01T12:31:56;26.60;11.60
52859;DHT22;38721;53.098;6.596;2022-09-01T12:34:42;26.00;4.90
52859;DHT22;38721;53.098;6.596;2022-09-01T12:39:45;26.50;3.30
52859;DHT22;38721;53.098;6.596;2022-09-01T12:44:47;27.30;6.90
52859;DHT22;38721;53.098;6.596;2022-09-01T12:52:31;25.70;1.00
52859;DHT22;38721;53.098;6.596;2022-09-01T12:57:47;25.80;1.00
52859;DHT22;38721;53.098;6.596;2022-09-01T13:02:50;26.00;1.00
52859;DHT22;38721;53.098;6.596;2022-09-01T13:07:45;25.20;1.00
52859;DHT22;38721;53.098;6.596;2022-09-01T13:10:11;25.60;1.00
52859;DHT22;38721;53.098;6.596;2022-09-01T13:12:44;25.50;1.00
52859;DHT22;38721;53.098;6.596;2022-09-01T13:15:10;25.30;1.00
52859;DHT22;38721;53.098;6.596;2022-09-01T13:17:37;26.10;1.00
52859;DHT22;38721;53.098;6.596;2022-09-01T13:20:06;26.90;1.00
52859;DHT22;38721;53.098;6.596;2022-09-01T13:22:33;27.20;1.00
52859;DHT22;38721;53.098;6.596;2022-09-01T13:24:59;27.40;1.00
52859;DHT22;38721;53.098;6.596;2022-09-01T13:27:26;28.20;1.00
52859;DHT22;38721;53.098;6.596;2022-09-01T13:29:52;26.80;1.00
52859;DHT22;38721;53.098;6.596;2022-09-01T13:32:19;26.00;1.00
52859;DHT22;38721;53.098;6.596;2022-09-01T13:34:45;26.00;1.00
52859;DHT22;38721;53.098;6.596;2022-09-01T13:37:11;25.60;1.00
52859;DHT22;38721;53.098;6.596;2022-09-01T13:39:36;25.30;1.00
52859;DHT22;38721;53.098;6.596;2022-09-01T13:42:02;25.10;1.00
52859;DHT22;38721;53.098;6.596;2022-09-01T13:44:28;25.70;1.00
52859;DHT22;38721;53.098;6.596;2022-09-01T13:46:54;26.40;1.00
52859;DHT22;38721;53.098;6.596;2022-09-01T13:49:19;27.20;1.00
52859;DHT22;38721;53.098;6.596;2022-09-01T13:51:54;27.90;1.00
52859;DHT22;38721;53.098;6.596;2022-09-01T13:54:20;26.90;1.00
52859;DHT22;38721;53.098;6.596;2022-09-01T13:56:45;27.10;1.00
52859;DHT22;38721;53.098;6.596;2022-09-01T13:59:11;26.90;1.00
52859;DHT22;38721;53.098;6.596;2022-09-01T14:01:37;26.10;1.00
52859;DHT22;38721;53.098;6.596;2022-09-01T14:04:06;25.90;1.00
52859;DHT22;38721;53.098;6.596;2022-09-01T14:06:32;25.30;1.00
52859;DHT22;38721;53.098;6.596;2022-09-01T14:08:58;25.00;1.00
52859;DHT22;38721;53.098;6.596;2022-09-01T14:11:24;25.10;1.00
52859;DHT22;38721;53.098;6.596;2022-09-01T14:13:51;25.70;1.00
52859;DHT22;38721;53.098;6.596;2022-09-01T14:16:17;26.80;1.00
52859;DHT22;38721;53.098;6.596;2022-09-01T14:18:42;27.50;1.00
52859;DHT22;38721;53.098;6.596;2022-09-01T14:21:14;27.60;1.00
52859;DHT22;38721;53.098;6.596;2022-09-01T14:23:41;27.00;1.00
52859;DHT22;38721;53.098;6.596;2022-09-01T14:26:10;26.20;1.00
52859;DHT22;38721;53.098;6.596;2022-09-01T14:28:36;27.10;1.00
52859;DHT22;38721;53.098;6.596;2022-09-01T14:31:10;28.20;1.00
52859;DHT22;38721;53.098;6.596;2022-09-01T14:33:38;28.50;1.00
52859;DHT22;38721;53.098;6.596;2022-09-01T14:36:06;28.20;1.00
52859;DHT22;38721;53.098;6.596;2022-09-01T14:38:32;27.60;1.00
52859;DHT22;38721;53.098;6.596;2022-09-01T14:41:00;27.40;1.00
52859;DHT22;38721;53.098;6.596;2022-09-01T14:43:26;26.70;1.00
52859;DHT22;38721;53.098;6.596;2022-09-01T14:46:06;26.20;1.00
52859;DHT22;38721;53.098;6.596;2022-09-01T14:48:34;27.60;1.00
52859;DHT22;38721;53.098;6.596;2022-09-01T14:51:00;29.00;1.00
52859;DHT22;38721;53.098;6.596;2022-09-01T14:53:30;31.00;1.00
52859;DHT22;38721;53.098;6.596;2022-09-01T14:55:57;31.20;1.00
52859;DHT22;38721;53.098;6.596;2022-09-01T14:58:24;30.60;1.00
52859;DHT22;38721;53.098;6.596;2022-09-01T15:00:51;29.20;1.00
52859;DHT22;38721;53.098;6.596;2022-09-01T15:03:19;27.80;1.00
52859;DHT22;38721;53.098;6.596;2022-09-01T15:05:45;27.30;1.00
52859;DHT22;38721;53.098;6.596;2022-09-01T15:08:14;28.20;1.00
52859;DHT22;38721;53.098;6.596;2022-09-01T15:10:40;30.20;1.00
52859;DHT22;38721;53.098;6.596;2022-09-01T15:13:07;28.50;1.00
52859;DHT22;38721;53.098;6.596;2022-09-01T15:15:36;27.30;1.00
52859;DHT22;38721;53.098;6.596;2022-09-01T15:18:02;26.40;1.00
52859;DHT22;38721;53.098;6.596;2022-09-01T15:20:28;26.00;1.00
52859;DHT22;38721;53.098;6.596;2022-09-01T15:23:14;26.00;1.00
52859;DHT22;38721;53.098;6.596;2022-09-01T15:25:40;25.40;1.00
52859;DHT22;38721;53.098;6.596;2022-09-01T15:28:06;28.70;1.00
52859;DHT22;38721;53.098;6.596;2022-09-01T15:30:32;29.90;1.00
52859;DHT22;38721;53.098;6.596;2022-09-01T15:32:58;31.70;1.00
52859;DHT22;38721;53.098;6.596;2022-09-01T15:35:23;30.80;1.00
52859;DHT22;38721;53.098;6.596;2022-09-01T15:37:51;30.10;1.00
52859;DHT22;38721;53.098;6.596;2022-09-01T15:40:18;28.90;1.00
52859;DHT22;38721;53.098;6.596;2022-09-01T15:42:44;27.90;1.00
52859;DHT22;38721;53.098;6.596;2022-09-01T15:45:12;27.20;1.00
52859;DHT22;38721;53.098;6.596;2022-09-01T15:47:39;26.80;1.00
52859;DHT22;38721;53.098;6.596;2022-09-01T15:50:07;26.10;1.00
52859;DHT22;38721;53.098;6.596;2022-09-01T15:52:33;25.50;1.00
52859;DHT22;38721;53.098;6.596;2022-09-01T15:55:01;27.50;1.00
52859;DHT22;38721;53.098;6.596;2022-09-01T15:57:27;29.70;1.00
52859;DHT22;38721;53.098;6.596;2022-09-01T15:59:53;31.60;1.00
52859;DHT22;38721;53.098;6.596;2022-09-01T16:02:18;32.70;1.00
52859;DHT22;38721;53.098;6.596;2022-09-01T16:04:46;33.40;1.00
52859;DHT22;38721;53.098;6.596;2022-09-01T16:07:12;33.80;1.00
52859;DHT22;38721;53.098;6.596;2022-09-01T16:09:37;34.60;1.00
52859;DHT22;38721;53.098;6.596;2022-09-01T16:12:04;34.50;1.00
52859;DHT22;38721;53.098;6.596;2022-09-01T16:14:33;34.90;1.00
52859;DHT22;38721;53.098;6.596;2022-09-01T16:17:14;36.00;1.00
52859;DHT22;38721;53.098;6.596;2022-09-01T16:19:51;36.00;1.00
52859;DHT22;38721;53.098;6.596;2022-09-01T16:24:45;36.40;1.00
52859;DHT22;38721;53.098;6.596;2022-09-01T16:27:14;36.70;1.00
52859;DHT22;38721;53.098;6.596;2022-09-01T16:29:48;35.90;1.00
52859;DHT22;38721;53.098;6.596;2022-09-01T16:32:16;33.70;1.00
52859;DHT22;38721;53.098;6.596;2022-09-01T16:34:44;31.50;99.90
52859;DHT22;38721;53.098;6.596;2022-09-01T16:37:20;33.50;1.00
52859;DHT22;38721;53.098;6.596;2022-09-01T16:39:57;33.00;1.00
52859;DHT22;38721;53.098;6.596;2022-09-01T16:45:50;33.10;1.00
52859;DHT22;38721;53.098;6.596;2022-09-01T16:48:27;33.50;1.00
52859;DHT22;38721;53.098;6.596;2022-09-01T16:51:23;34.10;1.00
52859;DHT22;38721;53.098;6.596;2022-09-01T17:04:53;34.90;1.00
52859;DHT22;38721;53.098;6.596;2022-09-01T17:07:38;34.80;1.00
52859;DHT22;38721;53.098;6.596;2022-09-01T17:10:34;34.80;99.90
52859;DHT22;38721;53.098;6.596;2022-09-01T17:13:14;35.00;99.90
52859;DHT22;38721;53.098;6.596;2022-09-01T17:15:43;34.50;99.90
52859;DHT22;38721;53.098;6.596;2022-09-01T17:21:04;33.90;99.90
52859;DHT22;38721;53.098;6.596;2022-09-01T17:23:36;33.50;99.90
52859;DHT22;38721;53.098;6.596;2022-09-01T17:26:09;33.80;99.90